Share

Anamoose, ND (58710)

Harvey (K5H4) Elev 1608 ft | 47.79 °N, 99.93 °W | Change Station
Active Advisory: Flood WarningWind Advisory

Current weather conditions updated 11 minutes ago

Partly Cloudy
Partly Cloudy
45 °F
Feels Like 36 °F
N
24
Wind Variable Wind from SE
Gusts 36 mph
Sunrise 6:46 AM
Sunset 8:35 PM
Moon Waning Gibbous

Tomorrow is forecast to be Much Warmer than today.

Pressure 29.77 in
Visibility 10.0 miles
Clouds Few 11000 ft
Windchill 36 °F
Dew Point 34 °F
Humidity 66%
Rainfall 0.00 in
Snow Depth Not available.
UV 0 out of 16
Pollen 8.60 out of 12
Air Quality Not available.
Flu Activity Sporadic
METAR K5H4 190035Z AUTO 13021G31KT 10SM FEW110 07/01 A2977 RMK AO2

More Conditions Fewer Conditions

Pressure 29.77 in
Visibility 10.0 miles
Clouds Few 11000 ft
Windchill 36 °F
Dew Point 34 °F
Humidity 66%
Rainfall 0.00 in
Snow Depth Not available.
UV 0 out of 16
Pollen 8.60 out of 12
Air Quality Not available.
Flu Activity Sporadic
METAR K5H4 190035Z AUTO 13021G31KT 10SM FEW110 07/01 A2977 RMK AO2

More Conditions Fewer Conditions

10-Day Weather Forecast

Almanac

Astronomy

Apr. 18, 2014 Rise Set
Actual Time 6:46 AM CDT 8:35 PM CDT
Civil Twilight 6:13 AM CDT 9:08 PM CDT
Nautical Twilight 5:33 AM CDT 9:49 PM CDT
Astronomical Twilight 4:48 AM CDT 10:33 PM CDT
Moon No Moon Rise 9:00 AM CDT (4/18)
Length of Visible Light 14h 55m
Length of Day
13h 49m
Tomorrow will be 3m 17s longer.
Waning Gibbous, 84% of the Moon is Illuminated
Today
Waning Gibbous
Apr 22
Last Quarter
Apr 29
New
May 6
First Quarter
May 14
Full

Today's Extremes

State Highs State Lows

Community

  • Cloudy spring view
    Cloudy spring view
  • Old barn
    Old barn
  • What's for Lunch?
    What's for Lunch?
  • SUNRISE THROUGH THE TREES.
    SUNRISE THROUGH THE TREES.
  • Dog Wood Blossoms
    Dog Wood Blossoms

WunderPhotos

Upload Photos

1,702,549 photos uploaded!

WunderBlogs® & News

Nearby

Snow Depth

Station Depth Elevation
No new snow has been reported.

Coastal Water Temperatures

Place Temperature
No Stations Reporting

Earthquake Activity

City Distance Mag. Time & Date
No recent earthquake activity has been reported nearby.
Minimum magnitude displayed is 2.5.

Nearby Weather Stations

There are no personal weather stations in this area.

What do you think?

We're not finished. Please let us know what you like, what you don't like, and what you are still missing.